sensor_id;sensor_type;location;lat;lon;timestamp;temperature;humidity
81366;DHT22;70822;51.990;22.766;2023-08-12T00:11:29;13.40;65.90
81366;DHT22;70822;51.990;22.766;2023-08-12T00:26:35;13.30;66.40
81366;DHT22;70822;51.990;22.766;2023-08-12T00:41:42;13.10;66.10
81366;DHT22;70822;51.990;22.766;2023-08-12T00:56:50;12.90;66.60
81366;DHT22;70822;51.990;22.766;2023-08-12T01:12:00;12.70;67.20
81366;DHT22;70822;51.990;22.766;2023-08-12T01:27:07;12.70;67.30
81366;DHT22;70822;51.990;22.766;2023-08-12T01:42:13;12.60;67.70
81366;DHT22;70822;51.990;22.766;2023-08-12T01:57:20;12.50;67.70
81366;DHT22;70822;51.990;22.766;2023-08-12T02:29:29;12.30;67.90
81366;DHT22;70822;51.990;22.766;2023-08-12T02:44:34;12.10;68.30
81366;DHT22;70822;51.990;22.766;2023-08-12T02:59:41;12.00;68.30
81366;DHT22;70822;51.990;22.766;2023-08-12T03:14:55;11.90;68.10
81366;DHT22;70822;51.990;22.766;2023-08-12T03:30:00;11.80;69.00
81366;DHT22;70822;51.990;22.766;2023-08-12T03:45:07;11.70;68.80
81366;DHT22;70822;51.990;22.766;2023-08-12T04:17:12;15.70;65.60
81366;DHT22;70822;51.990;22.766;2023-08-12T04:32:21;24.10;54.40
81366;DHT22;70822;51.990;22.766;2023-08-12T05:03:23;32.80;43.60
81366;DHT22;70822;51.990;22.766;2023-08-12T05:18:30;33.30;40.70
81366;DHT22;70822;51.990;22.766;2023-08-12T05:33:34;37.80;32.60
81366;DHT22;70822;51.990;22.766;2023-08-12T05:48:49;38.70;30.60
81366;DHT22;70822;51.990;22.766;2023-08-12T06:03:55;36.00;30.10
81366;DHT22;70822;51.990;22.766;2023-08-12T06:19:00;34.50;30.00
81366;DHT22;70822;51.990;22.766;2023-08-12T06:34:07;33.20;31.80
81366;DHT22;70822;51.990;22.766;2023-08-12T06:49:19;30.00;36.40
81366;DHT22;70822;51.990;22.766;2023-08-12T07:04:25;28.90;37.50
81366;DHT22;70822;51.990;22.766;2023-08-12T07:19:31;27.60;39.40
81366;DHT22;70822;51.990;22.766;2023-08-12T07:34:42;26.90;41.60
81366;DHT22;70822;51.990;22.766;2023-08-12T07:49:47;26.40;40.20
81366;DHT22;70822;51.990;22.766;2023-08-12T08:04:55;26.30;38.20
81366;DHT22;70822;51.990;22.766;2023-08-12T08:20:09;26.10;40.20
81366;DHT22;70822;51.990;22.766;2023-08-12T08:35:18;26.30;38.30
81366;DHT22;70822;51.990;22.766;2023-08-12T08:50:23;26.10;39.50
81366;DHT22;70822;51.990;22.766;2023-08-12T09:05:29;26.10;38.50
81366;DHT22;70822;51.990;22.766;2023-08-12T09:20:34;26.70;38.90
81366;DHT22;70822;51.990;22.766;2023-08-12T09:35:40;27.00;37.20
81366;DHT22;70822;51.990;22.766;2023-08-12T09:50:45;25.70;37.50
81366;DHT22;70822;51.990;22.766;2023-08-12T10:05:50;25.80;37.20
81366;DHT22;70822;51.990;22.766;2023-08-12T10:21:01;26.20;38.90
81366;DHT22;70822;51.990;22.766;2023-08-12T10:36:07;26.80;37.80
81366;DHT22;70822;51.990;22.766;2023-08-12T11:08:30;26.70;38.90
81366;DHT22;70822;51.990;22.766;2023-08-12T11:23:37;27.00;38.80
81366;DHT22;70822;51.990;22.766;2023-08-12T11:38:45;27.30;39.30
81366;DHT22;70822;51.990;22.766;2023-08-12T11:53:50;27.50;38.80
81366;DHT22;70822;51.990;22.766;2023-08-12T12:09:05;27.50;39.00
81366;DHT22;70822;51.990;22.766;2023-08-12T12:24:11;26.90;38.30
81366;DHT22;70822;51.990;22.766;2023-08-12T12:39:16;26.80;37.90
81366;DHT22;70822;51.990;22.766;2023-08-12T12:54:22;26.50;37.00
81366;DHT22;70822;51.990;22.766;2023-08-12T13:09:26;26.80;38.90
81366;DHT22;70822;51.990;22.766;2023-08-12T13:24:31;26.80;39.10
81366;DHT22;70822;51.990;22.766;2023-08-12T13:39:36;26.60;39.50
81366;DHT22;70822;51.990;22.766;2023-08-12T13:54:40;26.40;38.70
81366;DHT22;70822;51.990;22.766;2023-08-12T14:09:49;26.60;39.60
81366;DHT22;70822;51.990;22.766;2023-08-12T14:24:54;26.60;39.10
81366;DHT22;70822;51.990;22.766;2023-08-12T14:40:08;26.50;39.70
81366;DHT22;70822;51.990;22.766;2023-08-12T14:55:16;26.50;40.00
81366;DHT22;70822;51.990;22.766;2023-08-12T15:10:22;26.30;39.40
81366;DHT22;70822;51.990;22.766;2023-08-12T15:25:28;26.30;39.60
81366;DHT22;70822;51.990;22.766;2023-08-12T15:40:36;26.40;40.30
81366;DHT22;70822;51.990;22.766;2023-08-12T15:55:43;26.30;38.70
81366;DHT22;70822;51.990;22.766;2023-08-12T16:10:47;26.10;39.00
81366;DHT22;70822;51.990;22.766;2023-08-12T16:25:55;26.00;39.20
81366;DHT22;70822;51.990;22.766;2023-08-12T16:41:05;25.90;39.70
81366;DHT22;70822;51.990;22.766;2023-08-12T16:56:12;25.60;39.90
81366;DHT22;70822;51.990;22.766;2023-08-12T17:11:17;25.50;40.60
81366;DHT22;70822;51.990;22.766;2023-08-12T17:26:22;25.00;41.50
81366;DHT22;70822;51.990;22.766;2023-08-12T17:41:27;24.60;42.80
81366;DHT22;70822;51.990;22.766;2023-08-12T17:56:34;24.20;43.20
81366;DHT22;70822;51.990;22.766;2023-08-12T18:12:06;23.50;44.50
81366;DHT22;70822;51.990;22.766;2023-08-12T18:27:14;22.90;46.40
81366;DHT22;70822;51.990;22.766;2023-08-12T18:42:21;22.30;48.50
81366;DHT22;70822;51.990;22.766;2023-08-12T18:57:26;21.50;48.90
81366;DHT22;70822;51.990;22.766;2023-08-12T19:12:36;20.60;51.40
81366;DHT22;70822;51.990;22.766;2023-08-12T19:27:41;19.90;52.50
81366;DHT22;70822;51.990;22.766;2023-08-12T19:42:46;19.20;53.50
81366;DHT22;70822;51.990;22.766;2023-08-12T19:57:51;18.70;54.50
81366;DHT22;70822;51.990;22.766;2023-08-12T20:12:55;18.30;55.50
81366;DHT22;70822;51.990;22.766;2023-08-12T20:28:00;17.90;56.20
81366;DHT22;70822;51.990;22.766;2023-08-12T20:43:08;17.60;57.00
81366;DHT22;70822;51.990;22.766;2023-08-12T20:58:16;17.30;57.80
81366;DHT22;70822;51.990;22.766;2023-08-12T21:13:22;16.80;58.20
81366;DHT22;70822;51.990;22.766;2023-08-12T21:28:29;16.60;58.50
81366;DHT22;70822;51.990;22.766;2023-08-12T21:43:37;16.20;59.10
81366;DHT22;70822;51.990;22.766;2023-08-12T21:58:44;16.00;59.40
81366;DHT22;70822;51.990;22.766;2023-08-12T22:13:49;15.80;60.30
81366;DHT22;70822;51.990;22.766;2023-08-12T22:28:54;15.60;60.40
81366;DHT22;70822;51.990;22.766;2023-08-12T22:43:58;15.40;60.90
81366;DHT22;70822;51.990;22.766;2023-08-12T22:59:05;15.30;60.80
81366;DHT22;70822;51.990;22.766;2023-08-12T23:14:09;15.10;61.40
81366;DHT22;70822;51.990;22.766;2023-08-12T23:29:14;14.80;61.50
81366;DHT22;70822;51.990;22.766;2023-08-12T23:44:19;14.60;62.10
81366;DHT22;70822;51.990;22.766;2023-08-12T23:59:24;14.50;62.90
